createdAt,value
2022-12-26T00:00:18.514Z,100177.77
2022-12-26T00:05:42.281Z,100166.41
2022-12-26T00:10:46.035Z,100147.13
2022-12-26T00:15:49.892Z,100141.95
2022-12-26T00:20:54.632Z,100138.77
2022-12-26T00:26:05.999Z,100121.27
2022-12-26T00:31:12.766Z,100111.16
2022-12-26T00:36:29.440Z,100123.77
2022-12-26T00:41:33.733Z,100122.56
2022-12-26T00:46:37.471Z,100101.16
2022-12-26T00:51:41.244Z,100102.45
2022-12-26T00:56:44.967Z,100104.43
2022-12-26T01:01:48.738Z,100110.09
2022-12-26T01:06:52.686Z,100119.79
2022-12-26T01:11:56.399Z,100116.55
2022-12-26T01:17:00.384Z,100125.81
2022-12-26T01:22:04.219Z,100124.44
2022-12-26T01:27:07.967Z,100106.48
2022-12-26T01:32:11.718Z,100098.23
2022-12-26T01:37:16.885Z,100075.05
2022-12-26T01:42:23.053Z,100068.08
2022-12-26T01:47:43.712Z,100078.92
2022-12-26T01:52:48.250Z,100090.27
2022-12-26T01:57:57.462Z,100100.61
2022-12-26T02:03:19.671Z,100094.83
2022-12-26T02:08:32.983Z,100089.14
2022-12-26T02:13:37.444Z,100086.40
2022-12-26T02:18:41.147Z,100086.35
2022-12-26T02:24:06.652Z,100081.26
2022-12-26T02:29:35.417Z,100063.86
2022-12-26T02:34:54.337Z,100059.20
2022-12-26T02:40:27.162Z,100060.54
2022-12-26T02:46:18.741Z,100040.20
2022-12-26T02:51:46.045Z,100020.06
2022-12-26T02:57:11.737Z,99983.20
2022-12-26T03:02:45.555Z,100011.49
2022-12-26T03:08:08.520Z,100042.23
2022-12-26T03:13:17.447Z,100047.79
2022-12-26T03:18:58.595Z,100033.20
2022-12-26T03:23:48.044Z,100013.66
2022-12-26T03:28:51.959Z,100001.58
2022-12-26T03:34:17.752Z,100010.84
2022-12-26T03:39:52.296Z,100002.77
2022-12-26T03:45:29.898Z,99987.29
2022-12-26T03:50:57.082Z,99985.84
2022-12-26T03:56:45.032Z,99986.95
2022-12-26T04:02:30.444Z,99992.32
2022-12-26T04:07:58.665Z,99992.25
2022-12-26T04:13:23.804Z,99989.50
2022-12-26T04:18:58.669Z,100012.15
2022-12-26T04:24:29.163Z,100005.50
2022-12-26T04:29:51.856Z,100000.11
2022-12-26T04:35:26.658Z,99982.23
2022-12-26T04:40:52.015Z,99974.47
2022-12-26T04:45:55.821Z,99983.66
2022-12-26T04:51:00.137Z,99984.85
2022-12-26T04:56:03.902Z,99987.50
2022-12-26T05:01:26.452Z,99981.79
2022-12-26T05:06:49.447Z,99979.27
2022-12-26T05:11:53.106Z,99973.45
2022-12-26T05:17:15.364Z,99967.06
2022-12-26T05:22:37.625Z,99961.20
2022-12-26T05:28:02.350Z,99955.48
2022-12-26T05:33:24.862Z,99953.27
2022-12-26T05:38:28.470Z,99953.27
2022-12-26T05:43:32.386Z,99951.83
2022-12-26T05:48:36.003Z,99957.32
2022-12-26T05:53:39.703Z,99964.86
2022-12-26T05:58:43.435Z,99970.56
2022-12-26T06:03:49.403Z,99970.33
2022-12-26T06:08:55.625Z,99971.95
2022-12-26T06:14:00.357Z,99967.63
2022-12-26T06:19:04.109Z,99974.21
2022-12-26T06:24:07.944Z,99981.92
2022-12-26T06:29:11.632Z,99980.74
2022-12-26T06:34:15.390Z,99969.58
2022-12-26T06:39:19.177Z,99980.52
2022-12-26T06:44:22.888Z,99983.69
2022-12-26T06:49:32.443Z,99998.38
2022-12-26T06:54:36.663Z,99989.52
2022-12-26T06:59:40.474Z,99975.29
2022-12-26T07:04:44.128Z,99980.33
2022-12-26T07:09:47.824Z,99982.61
2022-12-26T07:14:52.052Z,99982.85
2022-12-26T07:19:57.118Z,99980.55
2022-12-26T07:25:00.812Z,99986.11
2022-12-26T07:30:04.894Z,99996.02
2022-12-26T07:35:09.247Z,99989.65
2022-12-26T07:40:13.855Z,99998.23
2022-12-26T07:45:18.615Z,99987.77
2022-12-26T07:50:24.075Z,99989.77
2022-12-26T07:55:27.860Z,99987.80
2022-12-26T08:00:31.735Z,99995.58
2022-12-26T08:05:35.671Z,99994.34
2022-12-26T08:10:39.540Z,99994.15
2022-12-26T08:15:43.241Z,100002.22
2022-12-26T08:20:46.902Z,99999.70
2022-12-26T08:25:50.547Z,100008.25
2022-12-26T08:30:54.225Z,100003.31
2022-12-26T08:36:03.115Z,100006.24
2022-12-26T08:41:07.262Z,100011.15
2022-12-26T08:46:12.416Z,100008.25
2022-12-26T08:51:19.279Z,100013.99
2022-12-26T08:56:25.273Z,100024.80
2022-12-26T09:01:31.533Z,100014.69
2022-12-26T09:06:37.528Z,100013.28
2022-12-26T09:11:41.851Z,100018.95
2022-12-26T09:16:50.471Z,100030.00
2022-12-26T09:22:14.954Z,100031.63
2022-12-26T09:27:18.725Z,100035.63
2022-12-26T09:32:22.314Z,100039.55
2022-12-26T09:37:25.991Z,100047.73
2022-12-26T09:42:51.088Z,100039.04
2022-12-26T09:48:00.223Z,100032.71
2022-12-26T09:53:18.587Z,100031.67
2022-12-26T09:58:59.133Z,100030.84
2022-12-26T10:04:09.270Z,100037.09
2022-12-26T10:09:43.494Z,100028.02
2022-12-26T10:14:59.047Z,100003.27
2022-12-26T10:20:16.815Z,100007.85
2022-12-26T10:25:30.360Z,100007.38
2022-12-26T10:30:40.725Z,99997.62
2022-12-26T10:35:46.804Z,99991.14
2022-12-26T10:40:52.926Z,100000.31
2022-12-26T10:46:24.390Z,100007.04
2022-12-26T10:51:28.198Z,100004.14
2022-12-26T10:56:32.677Z,99997.84
2022-12-26T11:01:38.664Z,99992.63
2022-12-26T11:06:43.497Z,99991.48
2022-12-26T11:11:49.564Z,99986.59
2022-12-26T11:16:53.335Z,99993.83
2022-12-26T11:22:15.336Z,99995.52
2022-12-26T11:27:23.512Z,99986.69
2022-12-26T11:32:27.953Z,99984.01
2022-12-26T11:37:37.962Z,99994.86
2022-12-26T11:42:41.778Z,99991.80
2022-12-26T11:47:46.395Z,99983.71
2022-12-26T11:52:56.093Z,99960.87
2022-12-26T11:58:09.100Z,99942.48
2022-12-26T12:03:16.976Z,99934.25
2022-12-26T12:08:33.447Z,99941.55
2022-12-26T12:13:53.717Z,99947.40
2022-12-26T12:19:28.265Z,99946.03
2022-12-26T12:25:01.283Z,99955.91
2022-12-26T12:30:24.563Z,99950.52
2022-12-26T12:35:41.433Z,99953.96
2022-12-26T12:40:51.739Z,99953.50
2022-12-26T12:46:09.799Z,99964.75
2022-12-26T12:51:25.732Z,99971.41
2022-12-26T12:56:50.396Z,99953.35
2022-12-26T13:02:00.478Z,99943.33
2022-12-26T13:07:22.338Z,99941.95
2022-12-26T13:12:38.990Z,99953.43
2022-12-26T13:17:54.456Z,99958.36
2022-12-26T13:23:21.406Z,99954.20
2022-12-26T13:28:30.011Z,99955.44
2022-12-26T13:33:34.583Z,99956.16
2022-12-26T13:38:56.726Z,99966.23
2022-12-26T13:44:03.308Z,99970.61
2022-12-26T13:49:29.725Z,99972.34
2022-12-26T13:54:33.882Z,99966.55
2022-12-26T13:59:46.688Z,99966.47
2022-12-26T14:05:11.359Z,99963.80
2022-12-26T14:10:27.967Z,99961.53
2022-12-26T14:15:39.655Z,99954.45
2022-12-26T14:20:56.531Z,99952.73
2022-12-26T14:26:14.975Z,99955.56
2022-12-26T14:31:34.871Z,99952.89
2022-12-26T14:37:06.505Z,99951.91
2022-12-26T14:42:41.015Z,99952.00
2022-12-26T14:47:48.649Z,99961.28
2022-12-26T14:52:52.406Z,99970.60
2022-12-26T14:57:56.568Z,99972.79
2022-12-26T15:03:01.918Z,99974.47
2022-12-26T15:08:20.842Z,99969.55
2022-12-26T15:13:53.767Z,99962.73
2022-12-26T15:19:20.761Z,99967.80
2022-12-26T15:25:18.050Z,99969.21
2022-12-26T15:30:18.522Z,99966.05
2022-12-26T15:35:22.205Z,99960.88
2022-12-26T15:40:29.617Z,99963.39
2022-12-26T15:45:36.348Z,99968.89
2022-12-26T15:51:11.075Z,99975.33
2022-12-26T15:56:51.641Z,99973.60
2022-12-26T16:01:55.833Z,99972.73
2022-12-26T16:07:45.076Z,99970.91
2022-12-26T16:12:58.870Z,99972.36
2022-12-26T16:18:17.353Z,99995.58
2022-12-26T16:23:26.134Z,100013.58
2022-12-26T16:28:38.641Z,100031.93
2022-12-26T16:33:43.664Z,100048.54
2022-12-26T16:38:47.554Z,100059.83
2022-12-26T16:43:54.483Z,100063.53
2022-12-26T16:48:59.918Z,100065.45
2022-12-26T16:54:16.866Z,100056.34
2022-12-26T16:59:23.828Z,100061.53
2022-12-26T17:04:29.747Z,100062.21
2022-12-26T17:09:41.510Z,100070.17
2022-12-26T17:14:48.249Z,100074.15
2022-12-26T17:19:54.783Z,100086.58
2022-12-26T17:25:29.822Z,100075.72
2022-12-26T17:30:33.849Z,100073.48
2022-12-26T17:36:25.363Z,100080.97
2022-12-26T17:41:04.151Z,100081.90
2022-12-26T17:46:11.110Z,100087.86
2022-12-26T17:51:17.829Z,100085.50
2022-12-26T17:56:24.634Z,100082.70
2022-12-26T18:01:28.567Z,100088.17
2022-12-26T18:06:32.550Z,100094.27
2022-12-26T18:11:36.532Z,100085.31
2022-12-26T18:16:40.477Z,100092.05
2022-12-26T18:21:44.631Z,100096.95
2022-12-26T18:26:48.995Z,100094.33
2022-12-26T18:31:53.647Z,100102.82
2022-12-26T18:36:57.594Z,100103.12
2022-12-26T18:42:01.554Z,100100.49
2022-12-26T18:47:05.453Z,100109.96
2022-12-26T18:52:10.230Z,100113.63
2022-12-26T18:57:20.629Z,100109.57
2022-12-26T19:02:24.670Z,100096.15
2022-12-26T19:07:29.175Z,100094.44
2022-12-26T19:12:33.272Z,100094.73
2022-12-26T19:17:39.861Z,100096.44
2022-12-26T19:22:44.616Z,100100.24
2022-12-26T19:27:49.761Z,100091.20
2022-12-26T19:32:53.927Z,100085.60
2022-12-26T19:37:58.992Z,100090.06
2022-12-26T19:43:03.395Z,100084.54
2022-12-26T19:48:07.573Z,100097.84
2022-12-26T19:53:11.876Z,100095.16
2022-12-26T19:58:16.954Z,100081.35
2022-12-26T20:03:21.553Z,100096.69
2022-12-26T20:08:25.979Z,100099.03
2022-12-26T20:13:29.818Z,100086.65
2022-12-26T20:18:35.843Z,100080.13
2022-12-26T20:23:41.436Z,100071.34
2022-12-26T20:28:47.257Z,100077.14
2022-12-26T20:33:53.305Z,100081.77
2022-12-26T20:39:02.731Z,100082.16
2022-12-26T20:44:06.907Z,100084.09
2022-12-26T20:49:11.517Z,100090.94
2022-12-26T20:54:17.107Z,100086.63
2022-12-26T20:59:24.097Z,100068.36
2022-12-26T21:04:29.835Z,100059.21
2022-12-26T21:09:42.518Z,100061.33
2022-12-26T21:14:50.692Z,100065.77
2022-12-26T21:19:56.149Z,100067.69
2022-12-26T21:25:00.589Z,100065.11
2022-12-26T21:30:05.411Z,100069.28
2022-12-26T21:35:09.867Z,100074.14
2022-12-26T21:40:16.021Z,100075.80
2022-12-26T21:45:20.141Z,100073.25
2022-12-26T21:50:24.283Z,100069.33
2022-12-26T21:55:28.782Z,100069.40
2022-12-26T22:00:34.144Z,100056.93
2022-12-26T22:05:40.366Z,100053.21
2022-12-26T22:11:05.221Z,100052.68
2022-12-26T22:16:11.293Z,100053.98
2022-12-26T22:21:21.533Z,100055.12
2022-12-26T22:26:26.615Z,100063.42
2022-12-26T22:31:33.514Z,100066.72
2022-12-26T22:36:37.628Z,100068.84
2022-12-26T22:41:41.601Z,100067.54
2022-12-26T22:46:48.718Z,100063.22
2022-12-26T22:51:53.132Z,100068.27
2022-12-26T22:56:57.444Z,100075.17
2022-12-26T23:02:02.463Z,100082.54
2022-12-26T23:07:07.240Z,100095.71
2022-12-26T23:12:30.409Z,100108.06
2022-12-26T23:17:55.589Z,100133.66
2022-12-26T23:22:59.745Z,100182.52
2022-12-26T23:28:22.776Z,100174.56
2022-12-26T23:33:26.561Z,100174.55
2022-12-26T23:38:30.469Z,100163.24
2022-12-26T23:43:35.281Z,100162.77
2022-12-26T23:48:39.320Z,100157.96
2022-12-26T23:53:43.077Z,100142.05
2022-12-26T23:58:46.840Z,100197.73
